createdAt,value
2017-08-13T00:00:05.365Z,80.08
2017-08-13T00:02:36.483Z,79.83
2017-08-13T00:05:07.587Z,79.79
2017-08-13T00:07:39.052Z,80.07
2017-08-13T00:10:10.100Z,79.62
2017-08-13T00:12:41.311Z,79.23
2017-08-13T00:15:12.954Z,78.81
2017-08-13T00:17:44.808Z,78.05
2017-08-13T00:20:16.512Z,78.79
2017-08-13T00:22:49.573Z,79.25
2017-08-13T00:25:20.819Z,79.11
2017-08-13T00:27:52.582Z,79.28
2017-08-13T00:30:24.114Z,78.87
2017-08-13T00:32:55.333Z,79.21
2017-08-13T00:35:26.734Z,79.07
2017-08-13T00:37:58.463Z,79.20
2017-08-13T00:40:29.875Z,79.80
2017-08-13T00:43:01.131Z,79.88
2017-08-13T00:45:32.872Z,79.81
2017-08-13T00:48:05.224Z,79.79
2017-08-13T00:50:37.477Z,80.03
2017-08-13T00:53:10.850Z,80.25
2017-08-13T00:55:42.434Z,80.40
2017-08-13T00:58:13.941Z,80.24
2017-08-13T01:00:46.257Z,80.98
2017-08-13T01:03:17.837Z,81.20
2017-08-13T01:05:50.212Z,81.10
2017-08-13T01:08:21.413Z,81.11
2017-08-13T01:10:52.926Z,80.87
2017-08-13T01:13:24.042Z,80.87
2017-08-13T01:15:55.413Z,81.15
2017-08-13T01:18:27.973Z,81.38
2017-08-13T01:20:59.468Z,81.26
2017-08-13T01:23:30.702Z,81.36
2017-08-13T01:26:04.196Z,81.53
2017-08-13T01:28:35.319Z,81.32
2017-08-13T01:31:06.532Z,81.40
2017-08-13T01:33:37.963Z,81.36
2017-08-13T01:36:09.113Z,81.04
2017-08-13T01:38:40.432Z,81.01
2017-08-13T01:41:11.488Z,81.30
2017-08-13T01:43:42.575Z,81.08
2017-08-13T01:46:14.006Z,81.21
2017-08-13T01:48:45.136Z,81.38
2017-08-13T01:51:16.476Z,81.63
2017-08-13T01:53:48.003Z,81.72
2017-08-13T01:56:19.290Z,81.50
2017-08-13T01:58:51.436Z,81.46
2017-08-13T02:01:22.789Z,81.19
2017-08-13T02:03:53.819Z,81.03
2017-08-13T02:06:24.897Z,81.23
2017-08-13T02:08:56.480Z,81.36
2017-08-13T02:11:27.519Z,81.72
2017-08-13T02:13:58.554Z,81.67
2017-08-13T02:16:29.987Z,81.72
2017-08-13T02:19:01.089Z,81.75
2017-08-13T02:21:32.458Z,81.66
2017-08-13T02:24:05.141Z,81.67
2017-08-13T02:26:36.159Z,81.73
2017-08-13T02:29:07.607Z,82.01
2017-08-13T02:31:38.679Z,82.15
2017-08-13T02:34:09.743Z,81.83
2017-08-13T02:36:41.278Z,81.74
2017-08-13T02:39:12.309Z,81.77
2017-08-13T02:41:43.346Z,81.63
2017-08-13T02:44:14.880Z,81.52
2017-08-13T02:46:45.990Z,81.61
2017-08-13T02:49:17.399Z,81.72
2017-08-13T02:51:49.880Z,81.63
2017-08-13T02:54:20.909Z,81.73
2017-08-13T02:56:52.496Z,81.77
2017-08-13T02:59:23.544Z,81.75
2017-08-13T03:01:54.776Z,81.77
2017-08-13T03:04:26.212Z,81.74
2017-08-13T03:06:57.266Z,81.94
2017-08-13T03:09:28.341Z,82.10
2017-08-13T03:11:59.600Z,82.29
2017-08-13T03:14:31.017Z,82.53
2017-08-13T03:17:02.280Z,82.19
2017-08-13T03:19:33.316Z,82.17
2017-08-13T03:22:05.554Z,82.01
2017-08-13T03:24:36.623Z,81.95
2017-08-13T03:27:07.707Z,81.65
2017-08-13T03:29:39.088Z,81.70
2017-08-13T03:32:10.152Z,81.93
2017-08-13T03:34:41.573Z,81.77
2017-08-13T03:37:12.648Z,81.66
2017-08-13T03:39:43.675Z,81.80
2017-08-13T03:42:15.064Z,81.88
2017-08-13T03:44:46.147Z,81.93
2017-08-13T03:47:17.205Z,81.91
2017-08-13T03:49:49.733Z,81.90
2017-08-13T03:52:21.156Z,81.77
2017-08-13T03:54:53.067Z,81.59
2017-08-13T03:57:24.111Z,81.40
2017-08-13T03:59:55.212Z,81.70
2017-08-13T04:02:26.700Z,81.66
2017-08-13T04:04:57.964Z,81.45
2017-08-13T04:07:29.009Z,81.18
2017-08-13T04:10:00.463Z,81.22
2017-08-13T04:12:31.550Z,81.04
2017-08-13T04:15:02.764Z,80.93
2017-08-13T04:17:34.344Z,80.74
2017-08-13T04:20:06.591Z,80.56
2017-08-13T04:22:38.218Z,80.70
2017-08-13T04:25:09.263Z,80.62
2017-08-13T04:30:35.782Z,79.81
2017-08-13T04:36:04.314Z,79.96
2017-08-13T04:38:35.376Z,79.83
2017-08-13T04:41:06.590Z,79.64
2017-08-13T04:43:37.625Z,79.44
2017-08-13T04:46:08.687Z,79.33
2017-08-13T04:48:40.179Z,79.50
2017-08-13T04:51:11.511Z,79.40
2017-08-13T04:55:11.929Z,79.22
2017-08-13T04:57:43.012Z,78.96
2017-08-13T05:00:14.350Z,78.84
2017-08-13T05:02:45.934Z,78.85
2017-08-13T05:05:16.941Z,78.66
2017-08-13T05:07:48.969Z,78.59
2017-08-13T05:10:20.380Z,78.57
2017-08-13T05:12:51.592Z,78.55
2017-08-13T05:15:22.894Z,78.27
2017-08-13T05:17:53.991Z,78.07
2017-08-13T05:20:25.190Z,78.14
2017-08-13T05:22:56.596Z,78.14
2017-08-13T05:25:27.638Z,78.13
2017-08-13T05:27:58.696Z,78.19
2017-08-13T05:30:30.049Z,78.29
2017-08-13T05:33:01.086Z,78.21
2017-08-13T05:35:32.191Z,78.25
2017-08-13T05:38:04.335Z,78.43
2017-08-13T05:40:35.588Z,78.57
2017-08-13T05:43:06.925Z,78.65
2017-08-13T05:45:38.062Z,78.49
2017-08-13T05:48:09.144Z,78.62
2017-08-13T05:50:40.537Z,78.66
2017-08-13T05:53:11.581Z,78.79
2017-08-13T05:55:42.639Z,78.62
2017-08-13T05:58:14.102Z,78.74
2017-08-13T06:00:45.357Z,78.36
2017-08-13T06:03:16.686Z,78.08
2017-08-13T06:05:48.935Z,78.26
2017-08-13T06:08:19.993Z,78.20
2017-08-13T06:10:51.837Z,78.25
2017-08-13T06:13:22.866Z,78.14
2017-08-13T06:15:53.955Z,78.00
2017-08-13T06:18:25.434Z,78.38
2017-08-13T06:20:56.663Z,77.79
2017-08-13T06:23:27.791Z,78.17
2017-08-13T06:25:58.855Z,77.84
2017-08-13T06:28:30.371Z,77.86
2017-08-13T06:31:01.685Z,77.67
2017-08-13T06:33:32.714Z,77.68
2017-08-13T06:36:04.691Z,77.46
2017-08-13T06:38:35.788Z,77.08
2017-08-13T06:41:07.284Z,76.71
2017-08-13T06:43:38.672Z,76.64
2017-08-13T06:46:10.114Z,76.92
2017-08-13T06:48:42.182Z,77.24
2017-08-13T06:51:15.265Z,76.84
2017-08-13T06:53:46.557Z,76.78
2017-08-13T06:56:17.959Z,76.78
2017-08-13T07:01:32.150Z,76.35
2017-08-13T07:04:04.283Z,76.24
2017-08-13T07:06:35.740Z,75.46
2017-08-13T07:09:06.804Z,75.70
2017-08-13T07:11:37.912Z,75.45
2017-08-13T07:14:09.362Z,75.41
2017-08-13T07:16:40.421Z,75.89
2017-08-13T07:19:11.438Z,75.60
2017-08-13T07:21:42.842Z,75.80
2017-08-13T07:24:13.880Z,76.05
2017-08-13T07:26:45.222Z,76.19
2017-08-13T07:29:16.467Z,76.37
2017-08-13T07:31:49.217Z,76.46
2017-08-13T07:34:20.769Z,76.95
2017-08-13T07:36:52.315Z,76.14
2017-08-13T07:39:23.413Z,75.67
2017-08-13T07:41:54.995Z,74.83
2017-08-13T07:44:26.056Z,73.80
2017-08-13T07:46:57.392Z,72.38
2017-08-13T07:49:28.458Z,71.28
2017-08-13T07:51:59.478Z,72.14
2017-08-13T07:54:30.941Z,72.28
2017-08-13T07:57:02.546Z,72.42
2017-08-13T07:59:33.583Z,71.61
2017-08-13T08:02:05.776Z,70.68
2017-08-13T08:04:36.827Z,68.39
2017-08-13T08:07:07.844Z,69.08
2017-08-13T08:09:38.916Z,67.92
2017-08-13T08:12:10.006Z,67.94
2017-08-13T08:14:41.387Z,68.34
2017-08-13T08:17:12.426Z,69.47
2017-08-13T08:19:43.447Z,70.74
2017-08-13T08:22:14.946Z,72.75
2017-08-13T08:24:46.435Z,73.54
2017-08-13T08:27:17.497Z,73.78
2017-08-13T08:29:50.013Z,73.74
2017-08-13T08:32:21.733Z,74.21
2017-08-13T08:34:53.421Z,72.94
2017-08-13T08:37:24.940Z,72.73
2017-08-13T08:39:57.365Z,72.21
2017-08-13T08:42:28.551Z,71.70
2017-08-13T08:45:01.261Z,71.01
2017-08-13T08:47:32.608Z,70.15
2017-08-13T08:50:05.265Z,69.68
2017-08-13T08:52:36.351Z,69.29
2017-08-13T08:55:07.775Z,68.93
2017-08-13T08:57:39.071Z,69.06
2017-08-13T09:00:10.152Z,68.72
2017-08-13T09:02:41.763Z,68.06
2017-08-13T09:05:12.820Z,68.62
2017-08-13T09:07:44.168Z,66.05
2017-08-13T09:10:15.276Z,64.02
2017-08-13T09:12:47.823Z,64.45
2017-08-13T09:15:18.881Z,64.28
2017-08-13T09:17:51.230Z,63.42
2017-08-13T09:20:22.279Z,62.50
2017-08-13T09:22:53.696Z,63.48
2017-08-13T09:25:25.154Z,61.65
2017-08-13T09:27:56.254Z,59.13
2017-08-13T09:30:27.349Z,57.76
2017-08-13T09:32:59.075Z,57.94
2017-08-13T09:35:30.312Z,56.42
2017-08-13T09:38:02.095Z,57.57
2017-08-13T09:40:33.235Z,61.39
2017-08-13T09:43:04.554Z,60.04
2017-08-13T09:45:36.097Z,60.33
2017-08-13T09:48:07.125Z,60.11
2017-08-13T09:50:38.210Z,59.78
2017-08-13T09:53:09.586Z,59.67
2017-08-13T09:55:40.637Z,58.31
2017-08-13T09:58:12.049Z,57.24
2017-08-13T10:00:43.152Z,59.14
2017-08-13T10:03:14.451Z,57.91
2017-08-13T10:05:46.517Z,55.89
2017-08-13T10:08:19.206Z,56.92
2017-08-13T10:10:53.814Z,57.13
2017-08-13T10:13:25.684Z,55.41
2017-08-13T10:15:56.854Z,53.91
2017-08-13T10:18:28.027Z,55.03
2017-08-13T10:20:59.208Z,53.61
2017-08-13T10:23:30.305Z,51.98
2017-08-13T10:26:02.826Z,51.59
2017-08-13T10:28:34.211Z,54.40
2017-08-13T10:31:05.717Z,53.41
2017-08-13T10:33:36.898Z,52.28
2017-08-13T10:36:07.984Z,50.61
2017-08-13T10:38:39.381Z,50.79
2017-08-13T10:41:10.470Z,51.32
2017-08-13T10:43:41.528Z,51.61
2017-08-13T10:46:13.091Z,51.23
2017-08-13T10:48:44.312Z,49.77
2017-08-13T10:51:15.348Z,50.41
2017-08-13T10:53:46.721Z,49.98
2017-08-13T10:56:18.688Z,48.19
2017-08-13T10:58:52.168Z,47.79
2017-08-13T11:01:23.231Z,47.92
2017-08-13T11:03:54.458Z,46.82
2017-08-13T11:06:26.006Z,46.39
2017-08-13T11:08:57.140Z,45.27
2017-08-13T11:11:28.168Z,45.06
2017-08-13T11:13:59.489Z,44.48
2017-08-13T11:16:31.102Z,43.67
2017-08-13T11:19:02.567Z,43.81
2017-08-13T11:21:33.606Z,44.83
2017-08-13T11:24:05.860Z,43.29
2017-08-13T11:26:37.248Z,41.69
2017-08-13T11:29:08.424Z,42.75
2017-08-13T11:31:39.830Z,42.96
2017-08-13T11:34:10.890Z,42.62
2017-08-13T11:36:41.936Z,42.12
2017-08-13T11:39:13.346Z,40.71
2017-08-13T11:41:44.418Z,40.33
2017-08-13T11:44:15.608Z,40.44
2017-08-13T11:46:47.111Z,41.24
2017-08-13T11:49:18.403Z,42.17
2017-08-13T11:51:52.417Z,42.50
2017-08-13T11:54:23.508Z,43.02
2017-08-13T11:56:54.525Z,43.62
2017-08-13T11:59:26.171Z,44.61
2017-08-13T12:01:57.240Z,43.41
2017-08-13T12:04:28.324Z,43.32
2017-08-13T12:06:59.989Z,42.78
2017-08-13T12:09:31.471Z,43.12
2017-08-13T12:12:04.308Z,41.15
2017-08-13T12:14:35.449Z,41.24
2017-08-13T12:17:06.756Z,40.70
2017-08-13T12:19:38.155Z,40.59
2017-08-13T12:22:09.300Z,39.96
2017-08-13T12:24:41.306Z,39.15
2017-08-13T12:27:12.680Z,38.24
2017-08-13T12:29:45.311Z,38.49
2017-08-13T12:32:16.824Z,38.01
2017-08-13T12:34:51.057Z,39.00
2017-08-13T12:37:22.312Z,39.94
2017-08-13T12:39:54.091Z,42.11
2017-08-13T12:42:25.701Z,43.21
2017-08-13T12:44:57.213Z,44.40
2017-08-13T12:47:28.308Z,46.80
2017-08-13T12:49:59.419Z,47.17
2017-08-13T12:52:31.343Z,48.86
2017-08-13T12:55:02.876Z,49.28
2017-08-13T12:57:34.162Z,49.42
2017-08-13T13:00:06.496Z,49.72
2017-08-13T13:02:37.605Z,49.67
2017-08-13T13:05:09.864Z,49.72
2017-08-13T13:07:40.959Z,49.69
2017-08-13T13:10:12.283Z,49.48
2017-08-13T13:12:44.723Z,48.54
2017-08-13T13:15:15.827Z,47.66
2017-08-13T13:17:48.572Z,47.36
2017-08-13T13:20:20.060Z,44.42
2017-08-13T13:22:53.237Z,42.71
2017-08-13T13:25:24.775Z,42.47
2017-08-13T13:27:56.146Z,42.31
2017-08-13T13:30:27.189Z,42.91
2017-08-13T13:32:58.324Z,42.73
2017-08-13T13:35:30.609Z,42.65
2017-08-13T13:38:03.751Z,41.81
2017-08-13T13:40:35.480Z,40.90
2017-08-13T13:43:06.564Z,40.38
2017-08-13T13:45:37.632Z,39.33
2017-08-13T13:48:09.089Z,37.97
2017-08-13T13:50:40.587Z,35.92
2017-08-13T13:53:12.185Z,36.96
2017-08-13T13:55:43.435Z,38.01
2017-08-13T14:00:52.908Z,38.77
2017-08-13T14:03:25.912Z,39.05
2017-08-13T14:05:57.388Z,38.73
2017-08-13T14:08:28.527Z,39.84
2017-08-13T14:10:59.853Z,40.66
2017-08-13T14:13:31.575Z,41.45
2017-08-13T14:16:03.876Z,42.80
2017-08-13T14:18:35.677Z,43.82
2017-08-13T14:21:06.772Z,44.37
2017-08-13T14:23:38.132Z,44.88
2017-08-13T14:26:09.583Z,45.69
2017-08-13T14:28:40.620Z,46.84
2017-08-13T14:31:11.669Z,48.35
2017-08-13T14:33:43.118Z,49.69
2017-08-13T14:36:14.159Z,50.30
2017-08-13T14:38:45.184Z,50.42
2017-08-13T14:41:16.513Z,50.28
2017-08-13T14:43:48.299Z,50.39
2017-08-13T14:46:19.338Z,51.08
2017-08-13T14:48:51.727Z,51.27
2017-08-13T14:51:23.311Z,51.95
2017-08-13T14:53:55.181Z,53.11
2017-08-13T14:56:26.246Z,53.84
2017-08-13T14:58:57.621Z,54.13
2017-08-13T15:01:28.723Z,53.76
2017-08-13T15:04:00.038Z,53.25
2017-08-13T15:06:31.182Z,52.78
2017-08-13T15:09:02.733Z,52.50
2017-08-13T15:11:44.799Z,53.37
2017-08-13T15:14:16.794Z,52.34
2017-08-13T15:16:51.470Z,51.63
2017-08-13T15:19:22.559Z,51.75
2017-08-13T15:21:54.664Z,52.47
2017-08-13T15:24:25.733Z,53.10
2017-08-13T15:26:57.233Z,53.63
2017-08-13T15:29:28.605Z,53.28
2017-08-13T15:31:59.715Z,51.68
2017-08-13T15:34:31.134Z,48.84
2017-08-13T15:37:02.541Z,45.87
2017-08-13T15:39:34.029Z,42.43
2017-08-13T15:42:05.963Z,38.82
2017-08-13T15:44:37.304Z,38.99
2017-08-13T15:47:08.659Z,37.78
2017-08-13T15:49:39.780Z,35.19
2017-08-13T15:52:11.036Z,29.15
2017-08-13T15:54:42.345Z,24.30
2017-08-13T15:57:13.889Z,21.26
2017-08-13T15:59:45.899Z,20.68
2017-08-13T16:02:17.000Z,20.77
2017-08-13T16:04:51.942Z,22.68
2017-08-13T16:07:23.284Z,20.38
2017-08-13T16:09:54.354Z,20.66
2017-08-13T16:12:26.158Z,23.20
2017-08-13T16:14:57.287Z,22.42
2017-08-13T16:17:28.448Z,20.18
2017-08-13T16:19:59.981Z,19.77
2017-08-13T16:22:31.017Z,20.00
2017-08-13T16:25:03.272Z,20.37
2017-08-13T16:27:35.045Z,21.45
2017-08-13T16:30:06.210Z,23.51
2017-08-13T16:32:37.566Z,26.30
2017-08-13T16:35:08.664Z,29.39
2017-08-13T16:37:40.007Z,31.43
2017-08-13T16:40:11.402Z,33.18
2017-08-13T16:45:05.263Z,35.04
2017-08-13T16:47:36.842Z,36.28
2017-08-13T16:50:08.142Z,35.12
2017-08-13T16:52:39.298Z,32.78
2017-08-13T16:55:10.682Z,29.96
2017-08-13T16:57:41.728Z,30.52
2017-08-13T17:00:13.088Z,32.36
2017-08-13T17:02:44.214Z,33.60
2017-08-13T17:05:15.403Z,34.59
2017-08-13T17:07:47.170Z,34.72
2017-08-13T17:10:18.394Z,34.04
2017-08-13T17:12:50.351Z,34.28
2017-08-13T17:15:22.209Z,34.08
2017-08-13T17:17:54.112Z,35.54
2017-08-13T17:20:26.293Z,37.34
2017-08-13T17:22:57.426Z,39.02
2017-08-13T17:25:28.567Z,39.96
2017-08-13T17:27:59.955Z,41.09
2017-08-13T17:30:31.347Z,42.51
2017-08-13T17:33:02.856Z,43.41
2017-08-13T17:35:41.647Z,44.35
2017-08-13T17:38:15.142Z,45.21
2017-08-13T17:40:48.862Z,45.47
2017-08-13T17:43:20.486Z,45.91
2017-08-13T17:45:54.877Z,46.37
2017-08-13T17:48:26.375Z,46.88
2017-08-13T17:50:57.581Z,47.37
2017-08-13T17:53:29.337Z,48.07
2017-08-13T17:56:00.822Z,48.49
2017-08-13T17:58:31.859Z,48.75
2017-08-13T18:01:08.534Z,49.19
2017-08-13T18:03:45.547Z,50.03
2017-08-13T18:06:16.937Z,50.38
2017-08-13T18:08:55.173Z,50.70
2017-08-13T18:11:26.248Z,51.37
2017-08-13T18:13:57.543Z,51.60
2017-08-13T18:16:28.935Z,52.12
2017-08-13T18:19:00.191Z,52.60
2017-08-13T18:21:31.670Z,52.96
2017-08-13T18:24:04.509Z,53.47
2017-08-13T18:26:35.895Z,54.33
2017-08-13T18:29:07.437Z,55.12
2017-08-13T18:31:38.930Z,55.55
2017-08-13T18:34:10.222Z,55.80
2017-08-13T18:36:41.680Z,56.16
2017-08-13T18:39:12.884Z,56.56
2017-08-13T18:41:44.131Z,56.98
2017-08-13T18:44:15.423Z,57.21
2017-08-13T18:46:47.717Z,57.57
2017-08-13T18:49:19.917Z,57.75
2017-08-13T18:51:54.546Z,57.95
2017-08-13T18:54:26.087Z,58.20
2017-08-13T18:56:57.203Z,58.37
2017-08-13T18:59:30.939Z,59.09
2017-08-13T19:02:04.853Z,59.34
2017-08-13T19:04:36.223Z,59.64
2017-08-13T19:07:08.337Z,60.22
2017-08-13T19:09:39.811Z,60.55
2017-08-13T19:12:12.422Z,60.83
2017-08-13T19:14:44.163Z,61.11
2017-08-13T19:17:25.349Z,61.25
2017-08-13T19:22:37.584Z,62.06
2017-08-13T19:25:12.486Z,62.39
2017-08-13T19:27:44.071Z,62.66
2017-08-13T19:30:15.612Z,62.96
2017-08-13T19:35:23.313Z,63.02
2017-08-13T19:37:56.550Z,62.99
2017-08-13T19:40:28.008Z,63.01
2017-08-13T19:42:59.404Z,62.89
2017-08-13T19:45:31.871Z,62.66
2017-08-13T19:48:04.129Z,62.62
2017-08-13T19:50:35.302Z,62.67
2017-08-13T19:53:06.518Z,62.76
2017-08-13T19:55:37.885Z,62.94
2017-08-13T19:58:08.972Z,63.09
2017-08-13T20:00:40.064Z,63.33
2017-08-13T20:03:12.276Z,63.44
2017-08-13T20:05:43.428Z,63.60
2017-08-13T20:08:14.517Z,63.65
2017-08-13T20:10:45.937Z,63.77
2017-08-13T20:13:17.106Z,64.05
2017-08-13T20:15:50.205Z,64.36
2017-08-13T20:18:28.448Z,64.50
2017-08-13T20:20:59.960Z,64.59
2017-08-13T20:23:31.326Z,64.67
2017-08-13T20:26:03.264Z,64.83
2017-08-13T20:28:34.629Z,65.21
2017-08-13T20:31:06.063Z,65.44
2017-08-13T20:33:37.611Z,65.66
2017-08-13T20:36:09.124Z,65.71
2017-08-13T20:38:40.267Z,65.92
2017-08-13T20:41:11.722Z,66.16
2017-08-13T20:43:42.912Z,66.27
2017-08-13T20:46:14.023Z,66.40
2017-08-13T20:48:45.642Z,66.53
2017-08-13T20:51:17.378Z,66.74
2017-08-13T20:53:50.634Z,66.96
2017-08-13T20:56:22.035Z,67.17
2017-08-13T20:58:55.536Z,67.22
2017-08-13T21:01:26.904Z,67.37
2017-08-13T21:03:58.424Z,67.57
2017-08-13T21:06:29.901Z,67.79
2017-08-13T21:09:02.536Z,67.93
2017-08-13T21:11:33.728Z,68.16
2017-08-13T21:14:05.655Z,68.64
2017-08-13T21:16:36.994Z,69.45
2017-08-13T21:19:08.165Z,69.74
2017-08-13T21:21:39.860Z,70.01
2017-08-13T21:24:10.928Z,70.42
2017-08-13T21:26:42.228Z,70.74
2017-08-13T21:29:13.713Z,70.94
2017-08-13T21:31:45.050Z,70.91
2017-08-13T21:34:16.618Z,70.96
2017-08-13T21:36:50.360Z,71.19
2017-08-13T21:39:21.810Z,71.48
2017-08-13T21:41:53.239Z,71.81
2017-08-13T21:44:24.471Z,72.28
2017-08-13T21:46:55.805Z,72.70
2017-08-13T21:49:27.303Z,72.82
2017-08-13T21:51:58.315Z,73.07
2017-08-13T21:54:29.349Z,73.35
2017-08-13T21:57:01.180Z,73.47
2017-08-13T21:59:32.256Z,73.67
2017-08-13T22:02:04.647Z,74.20
2017-08-13T22:04:36.078Z,74.50
2017-08-13T22:07:07.137Z,75.17
2017-08-13T22:09:38.852Z,75.15
2017-08-13T22:12:09.967Z,75.62
2017-08-13T22:14:41.657Z,75.77
2017-08-13T22:17:13.784Z,75.92
2017-08-13T22:19:45.718Z,76.05
2017-08-13T22:22:17.204Z,76.24
2017-08-13T22:24:49.783Z,76.59
2017-08-13T22:27:21.807Z,76.93
2017-08-13T22:29:54.974Z,77.05
2017-08-13T22:32:27.321Z,77.20
2017-08-13T22:34:59.687Z,77.42
2017-08-13T22:37:31.658Z,77.39
2017-08-13T22:40:04.578Z,77.55
2017-08-13T22:42:36.171Z,77.66
2017-08-13T22:45:07.808Z,77.80
2017-08-13T22:47:39.788Z,77.90
2017-08-13T22:50:11.215Z,78.11
2017-08-13T22:52:42.272Z,78.23
2017-08-13T22:55:13.328Z,78.59
2017-08-13T22:57:44.786Z,78.67
2017-08-13T23:00:15.873Z,78.67
2017-08-13T23:02:47.105Z,78.50
2017-08-13T23:05:18.506Z,78.25
2017-08-13T23:07:50.712Z,78.07
2017-08-13T23:10:22.455Z,77.92
2017-08-13T23:12:54.946Z,77.89
2017-08-13T23:15:26.333Z,77.76
2017-08-13T23:17:57.793Z,77.77
2017-08-13T23:20:28.886Z,77.66
2017-08-13T23:22:59.978Z,77.60
2017-08-13T23:25:31.980Z,77.67
2017-08-13T23:28:03.943Z,77.68
2017-08-13T23:30:35.604Z,77.78
2017-08-13T23:33:06.625Z,77.89
2017-08-13T23:35:37.979Z,77.93
2017-08-13T23:38:09.498Z,77.97
2017-08-13T23:40:40.559Z,77.96
2017-08-13T23:43:11.580Z,78.03
2017-08-13T23:45:42.629Z,78.08
2017-08-13T23:48:13.661Z,78.12
2017-08-13T23:50:45.209Z,78.01
2017-08-13T23:53:16.281Z,77.75
2017-08-13T23:55:47.512Z,77.49
2017-08-13T23:58:18.937Z,77.37
